sensor_id;sensor_type;location;lat;lon;timestamp;P1;durP1;ratioP1;P2;durP2;ratioP2
85312;SDS011;75717;50.496;7.560;2024-02-23T00:00:31;2.33;;;0.90;;
85312;SDS011;75717;50.496;7.560;2024-02-23T00:02:56;4.50;;;0.83;;
85312;SDS011;75717;50.496;7.560;2024-02-23T00:05:23;2.28;;;1.00;;
85312;SDS011;75717;50.496;7.560;2024-02-23T00:07:48;3.88;;;1.30;;
85312;SDS011;75717;50.496;7.560;2024-02-23T00:10:14;3.50;;;0.90;;
85312;SDS011;75717;50.496;7.560;2024-02-23T00:12:39;6.95;;;1.33;;
85312;SDS011;75717;50.496;7.560;2024-02-23T00:15:04;3.22;;;0.93;;
85312;SDS011;75717;50.496;7.560;2024-02-23T00:17:30;3.47;;;0.77;;
85312;SDS011;75717;50.496;7.560;2024-02-23T00:19:55;1.97;;;0.87;;
85312;SDS011;75717;50.496;7.560;2024-02-23T00:22:20;6.55;;;0.85;;
85312;SDS011;75717;50.496;7.560;2024-02-23T00:24:46;4.40;;;1.00;;
85312;SDS011;75717;50.496;7.560;2024-02-23T00:27:11;3.20;;;0.70;;
85312;SDS011;75717;50.496;7.560;2024-02-23T00:29:37;2.65;;;0.90;;
85312;SDS011;75717;50.496;7.560;2024-02-23T00:32:02;4.78;;;0.90;;
85312;SDS011;75717;50.496;7.560;2024-02-23T00:34:28;3.35;;;0.98;;
85312;SDS011;75717;50.496;7.560;2024-02-23T00:36:55;2.00;;;0.65;;
85312;SDS011;75717;50.496;7.560;2024-02-23T00:39:21;3.28;;;0.68;;
85312;SDS011;75717;50.496;7.560;2024-02-23T00:41:46;3.15;;;1.17;;
85312;SDS011;75717;50.496;7.560;2024-02-23T00:44:11;2.65;;;0.70;;
85312;SDS011;75717;50.496;7.560;2024-02-23T00:46:37;1.13;;;0.60;;
85312;SDS011;75717;50.496;7.560;2024-02-23T00:49:02;1.90;;;0.47;;
85312;SDS011;75717;50.496;7.560;2024-02-23T00:51:27;2.50;;;0.70;;
85312;SDS011;75717;50.496;7.560;2024-02-23T00:53:53;2.45;;;1.10;;
85312;SDS011;75717;50.496;7.560;2024-02-23T00:56:18;3.83;;;0.70;;
85312;SDS011;75717;50.496;7.560;2024-02-23T00:58:44;5.00;;;0.93;;
85312;SDS011;75717;50.496;7.560;2024-02-23T01:01:09;1.77;;;0.60;;
85312;SDS011;75717;50.496;7.560;2024-02-23T01:03:34;1.77;;;0.50;;
85312;SDS011;75717;50.496;7.560;2024-02-23T01:06:00;2.83;;;0.50;;
85312;SDS011;75717;50.496;7.560;2024-02-23T01:08:25;2.55;;;0.52;;
85312;SDS011;75717;50.496;7.560;2024-02-23T01:10:50;1.73;;;0.50;;
85312;SDS011;75717;50.496;7.560;2024-02-23T01:13:15;1.47;;;0.37;;
85312;SDS011;75717;50.496;7.560;2024-02-23T01:15:41;1.40;;;0.25;;
85312;SDS011;75717;50.496;7.560;2024-02-23T01:18:07;2.72;;;0.43;;
85312;SDS011;75717;50.496;7.560;2024-02-23T01:20:32;0.30;;;0.20;;
85312;SDS011;75717;50.496;7.560;2024-02-23T01:22:58;2.50;;;0.43;;
85312;SDS011;75717;50.496;7.560;2024-02-23T01:25:23;2.90;;;0.50;;
85312;SDS011;75717;50.496;7.560;2024-02-23T01:27:48;1.03;;;0.50;;
85312;SDS011;75717;50.496;7.560;2024-02-23T01:30:14;1.08;;;0.40;;
85312;SDS011;75717;50.496;7.560;2024-02-23T01:32:39;0.45;;;0.30;;
85312;SDS011;75717;50.496;7.560;2024-02-23T01:35:05;0.73;;;0.25;;
85312;SDS011;75717;50.496;7.560;2024-02-23T01:37:31;1.05;;;0.47;;
85312;SDS011;75717;50.496;7.560;2024-02-23T01:39:57;0.57;;;0.30;;
85312;SDS011;75717;50.496;7.560;2024-02-23T01:42:23;0.45;;;0.40;;
85312;SDS011;75717;50.496;7.560;2024-02-23T01:44:48;0.57;;;0.40;;
85312;SDS011;75717;50.496;7.560;2024-02-23T01:47:14;4.03;;;0.57;;
85312;SDS011;75717;50.496;7.560;2024-02-23T01:49:40;0.98;;;0.70;;
85312;SDS011;75717;50.496;7.560;2024-02-23T01:52:05;4.13;;;0.90;;
85312;SDS011;75717;50.496;7.560;2024-02-23T01:54:31;1.70;;;0.40;;
85312;SDS011;75717;50.496;7.560;2024-02-23T01:56:56;2.58;;;0.52;;
85312;SDS011;75717;50.496;7.560;2024-02-23T01:59:22;0.75;;;0.50;;
85312;SDS011;75717;50.496;7.560;2024-02-23T02:01:48;2.35;;;0.57;;
85312;SDS011;75717;50.496;7.560;2024-02-23T02:04:13;1.15;;;0.45;;
85312;SDS011;75717;50.496;7.560;2024-02-23T02:06:39;0.95;;;0.20;;
85312;SDS011;75717;50.496;7.560;2024-02-23T02:09:04;0.98;;;0.40;;
85312;SDS011;75717;50.496;7.560;2024-02-23T02:11:30;2.20;;;0.50;;
85312;SDS011;75717;50.496;7.560;2024-02-23T02:13:55;1.85;;;0.40;;
85312;SDS011;75717;50.496;7.560;2024-02-23T02:16:21;1.67;;;0.60;;
85312;SDS011;75717;50.496;7.560;2024-02-23T02:18:46;1.77;;;0.73;;
85312;SDS011;75717;50.496;7.560;2024-02-23T02:21:12;2.20;;;0.65;;
85312;SDS011;75717;50.496;7.560;2024-02-23T02:23:37;3.23;;;0.70;;
85312;SDS011;75717;50.496;7.560;2024-02-23T02:26:03;2.70;;;0.40;;
85312;SDS011;75717;50.496;7.560;2024-02-23T02:28:28;0.80;;;0.50;;
85312;SDS011;75717;50.496;7.560;2024-02-23T02:30:54;2.05;;;0.57;;
85312;SDS011;75717;50.496;7.560;2024-02-23T02:33:19;1.75;;;0.63;;
85312;SDS011;75717;50.496;7.560;2024-02-23T02:35:45;0.73;;;0.30;;
85312;SDS011;75717;50.496;7.560;2024-02-23T02:38:11;2.20;;;0.60;;
85312;SDS011;75717;50.496;7.560;2024-02-23T02:40:36;3.80;;;0.80;;
85312;SDS011;75717;50.496;7.560;2024-02-23T02:43:02;0.95;;;0.63;;
85312;SDS011;75717;50.496;7.560;2024-02-23T02:45:27;3.63;;;0.80;;
85312;SDS011;75717;50.496;7.560;2024-02-23T02:47:52;4.13;;;0.90;;
85312;SDS011;75717;50.496;7.560;2024-02-23T02:50:18;1.20;;;0.50;;
85312;SDS011;75717;50.496;7.560;2024-02-23T02:52:43;3.40;;;0.63;;
85312;SDS011;75717;50.496;7.560;2024-02-23T02:55:09;2.87;;;0.93;;
85312;SDS011;75717;50.496;7.560;2024-02-23T02:57:34;0.60;;;0.50;;
85312;SDS011;75717;50.496;7.560;2024-02-23T03:00:01;2.00;;;0.50;;
85312;SDS011;75717;50.496;7.560;2024-02-23T03:02:33;2.15;;;0.65;;
85312;SDS011;75717;50.496;7.560;2024-02-23T03:05:06;3.10;;;0.88;;
85312;SDS011;75717;50.496;7.560;2024-02-23T03:07:31;1.92;;;0.70;;
85312;SDS011;75717;50.496;7.560;2024-02-23T03:09:57;3.30;;;0.70;;
85312;SDS011;75717;50.496;7.560;2024-02-23T03:12:22;1.93;;;0.60;;
85312;SDS011;75717;50.496;7.560;2024-02-23T03:14:47;6.13;;;0.90;;
85312;SDS011;75717;50.496;7.560;2024-02-23T03:17:13;1.47;;;0.50;;
85312;SDS011;75717;50.496;7.560;2024-02-23T03:19:38;3.30;;;0.88;;
85312;SDS011;75717;50.496;7.560;2024-02-23T03:22:03;1.23;;;0.63;;
85312;SDS011;75717;50.496;7.560;2024-02-23T03:24:29;3.83;;;0.95;;
85312;SDS011;75717;50.496;7.560;2024-02-23T03:26:55;2.00;;;0.60;;
85312;SDS011;75717;50.496;7.560;2024-02-23T03:29:20;2.20;;;0.65;;
85312;SDS011;75717;50.496;7.560;2024-02-23T03:31:49;1.95;;;0.55;;
85312;SDS011;75717;50.496;7.560;2024-02-23T03:34:14;2.85;;;0.80;;
85312;SDS011;75717;50.496;7.560;2024-02-23T03:36:39;2.10;;;0.80;;
85312;SDS011;75717;50.496;7.560;2024-02-23T03:39:05;2.87;;;0.93;;
85312;SDS011;75717;50.496;7.560;2024-02-23T03:41:30;2.80;;;0.63;;
85312;SDS011;75717;50.496;7.560;2024-02-23T03:43:56;5.50;;;1.23;;
85312;SDS011;75717;50.496;7.560;2024-02-23T03:46:21;2.80;;;0.90;;
85312;SDS011;75717;50.496;7.560;2024-02-23T03:48:46;1.17;;;0.70;;
85312;SDS011;75717;50.496;7.560;2024-02-23T03:51:12;1.30;;;0.77;;
85312;SDS011;75717;50.496;7.560;2024-02-23T03:53:37;6.47;;;0.70;;
85312;SDS011;75717;50.496;7.560;2024-02-23T03:56:03;1.17;;;0.57;;
85312;SDS011;75717;50.496;7.560;2024-02-23T03:58:28;2.10;;;0.57;;
85312;SDS011;75717;50.496;7.560;2024-02-23T04:00:54;2.25;;;0.90;;
85312;SDS011;75717;50.496;7.560;2024-02-23T04:03:19;1.80;;;0.90;;
85312;SDS011;75717;50.496;7.560;2024-02-23T04:05:44;3.13;;;0.90;;
85312;SDS011;75717;50.496;7.560;2024-02-23T04:08:10;4.30;;;1.05;;
85312;SDS011;75717;50.496;7.560;2024-02-23T04:10:35;3.40;;;0.67;;
85312;SDS011;75717;50.496;7.560;2024-02-23T04:13:00;3.40;;;1.23;;
85312;SDS011;75717;50.496;7.560;2024-02-23T04:15:26;2.05;;;0.65;;
85312;SDS011;75717;50.496;7.560;2024-02-23T04:17:51;1.83;;;0.75;;
85312;SDS011;75717;50.496;7.560;2024-02-23T04:20:17;4.60;;;0.88;;
85312;SDS011;75717;50.496;7.560;2024-02-23T04:22:42;5.73;;;1.20;;
85312;SDS011;75717;50.496;7.560;2024-02-23T04:25:07;1.20;;;0.67;;
85312;SDS011;75717;50.496;7.560;2024-02-23T04:27:33;4.15;;;0.82;;
85312;SDS011;75717;50.496;7.560;2024-02-23T04:29:58;3.83;;;0.90;;
85312;SDS011;75717;50.496;7.560;2024-02-23T04:32:23;4.50;;;0.83;;
85312;SDS011;75717;50.496;7.560;2024-02-23T04:34:49;3.30;;;0.83;;
85312;SDS011;75717;50.496;7.560;2024-02-23T04:37:14;1.87;;;0.73;;
85312;SDS011;75717;50.496;7.560;2024-02-23T04:39:39;5.13;;;1.13;;
85312;SDS011;75717;50.496;7.560;2024-02-23T04:42:06;2.38;;;0.75;;
85312;SDS011;75717;50.496;7.560;2024-02-23T04:44:33;9.35;;;1.00;;
85312;SDS011;75717;50.496;7.560;2024-02-23T04:46:58;3.92;;;1.13;;
85312;SDS011;75717;50.496;7.560;2024-02-23T04:49:24;1.60;;;0.67;;
85312;SDS011;75717;50.496;7.560;2024-02-23T04:51:49;5.63;;;1.10;;
85312;SDS011;75717;50.496;7.560;2024-02-23T04:54:14;4.17;;;0.70;;
85312;SDS011;75717;50.496;7.560;2024-02-23T04:56:39;6.50;;;0.80;;
85312;SDS011;75717;50.496;7.560;2024-02-23T04:59:05;4.23;;;1.10;;
85312;SDS011;75717;50.496;7.560;2024-02-23T05:01:34;1.05;;;0.70;;
85312;SDS011;75717;50.496;7.560;2024-02-23T05:04:00;4.05;;;0.95;;
85312;SDS011;75717;50.496;7.560;2024-02-23T05:06:26;1.83;;;0.97;;
85312;SDS011;75717;50.496;7.560;2024-02-23T05:08:51;6.13;;;1.53;;
85312;SDS011;75717;50.496;7.560;2024-02-23T05:11:16;4.23;;;1.07;;
85312;SDS011;75717;50.496;7.560;2024-02-23T05:13:42;3.77;;;1.10;;
85312;SDS011;75717;50.496;7.560;2024-02-23T05:16:07;7.53;;;1.33;;
85312;SDS011;75717;50.496;7.560;2024-02-23T05:18:32;8.00;;;1.47;;
85312;SDS011;75717;50.496;7.560;2024-02-23T05:20:57;4.17;;;1.33;;
85312;SDS011;75717;50.496;7.560;2024-02-23T05:23:23;6.80;;;1.10;;
85312;SDS011;75717;50.496;7.560;2024-02-23T05:25:48;4.00;;;0.80;;
85312;SDS011;75717;50.496;7.560;2024-02-23T05:28:14;3.40;;;1.05;;
85312;SDS011;75717;50.496;7.560;2024-02-23T05:30:40;5.25;;;1.10;;
85312;SDS011;75717;50.496;7.560;2024-02-23T05:33:05;3.83;;;0.88;;
85312;SDS011;75717;50.496;7.560;2024-02-23T05:35:31;4.47;;;0.85;;
85312;SDS011;75717;50.496;7.560;2024-02-23T05:37:56;3.83;;;1.10;;
85312;SDS011;75717;50.496;7.560;2024-02-23T05:40:22;2.87;;;1.03;;
85312;SDS011;75717;50.496;7.560;2024-02-23T05:42:47;2.00;;;0.67;;
85312;SDS011;75717;50.496;7.560;2024-02-23T05:45:12;2.80;;;1.03;;
85312;SDS011;75717;50.496;7.560;2024-02-23T05:47:38;3.45;;;1.33;;
85312;SDS011;75717;50.496;7.560;2024-02-23T05:50:04;3.25;;;1.10;;
85312;SDS011;75717;50.496;7.560;2024-02-23T05:52:33;7.90;;;1.42;;
85312;SDS011;75717;50.496;7.560;2024-02-23T05:54:58;6.03;;;1.40;;
85312;SDS011;75717;50.496;7.560;2024-02-23T05:57:25;3.60;;;1.20;;
85312;SDS011;75717;50.496;7.560;2024-02-23T05:59:53;10.75;;;1.50;;
85312;SDS011;75717;50.496;7.560;2024-02-23T06:02:20;4.63;;;2.10;;
85312;SDS011;75717;50.496;7.560;2024-02-23T06:04:46;3.97;;;1.50;;
85312;SDS011;75717;50.496;7.560;2024-02-23T06:07:11;3.67;;;1.10;;
85312;SDS011;75717;50.496;7.560;2024-02-23T06:09:37;6.53;;;1.30;;
85312;SDS011;75717;50.496;7.560;2024-02-23T06:12:03;3.25;;;0.98;;
85312;SDS011;75717;50.496;7.560;2024-02-23T06:14:29;3.78;;;1.10;;
85312;SDS011;75717;50.496;7.560;2024-02-23T06:16:54;9.13;;;2.03;;
85312;SDS011;75717;50.496;7.560;2024-02-23T06:19:21;7.05;;;1.70;;
85312;SDS011;75717;50.496;7.560;2024-02-23T06:21:49;5.03;;;1.07;;
85312;SDS011;75717;50.496;7.560;2024-02-23T06:24:15;1.55;;;0.73;;
85312;SDS011;75717;50.496;7.560;2024-02-23T06:26:43;3.65;;;1.02;;
85312;SDS011;75717;50.496;7.560;2024-02-23T06:29:08;10.95;;;1.65;;
85312;SDS011;75717;50.496;7.560;2024-02-23T06:31:38;4.95;;;1.55;;
85312;SDS011;75717;50.496;7.560;2024-02-23T06:34:04;5.30;;;1.63;;
85312;SDS011;75717;50.496;7.560;2024-02-23T06:36:29;2.45;;;0.93;;
85312;SDS011;75717;50.496;7.560;2024-02-23T06:38:55;3.87;;;1.13;;
85312;SDS011;75717;50.496;7.560;2024-02-23T06:41:20;3.87;;;1.03;;
85312;SDS011;75717;50.496;7.560;2024-02-23T06:43:45;8.13;;;1.50;;
85312;SDS011;75717;50.496;7.560;2024-02-23T06:46:11;8.90;;;1.70;;
85312;SDS011;75717;50.496;7.560;2024-02-23T06:48:36;7.28;;;1.83;;
85312;SDS011;75717;50.496;7.560;2024-02-23T06:51:02;7.38;;;1.70;;
85312;SDS011;75717;50.496;7.560;2024-02-23T06:53:28;5.53;;;1.00;;
85312;SDS011;75717;50.496;7.560;2024-02-23T06:55:54;6.03;;;1.67;;
85312;SDS011;75717;50.496;7.560;2024-02-23T06:58:19;3.10;;;1.20;;
85312;SDS011;75717;50.496;7.560;2024-02-23T07:00:44;8.37;;;1.33;;
85312;SDS011;75717;50.496;7.560;2024-02-23T07:03:09;6.40;;;1.13;;
85312;SDS011;75717;50.496;7.560;2024-02-23T07:05:35;7.72;;;1.00;;
85312;SDS011;75717;50.496;7.560;2024-02-23T07:08:01;3.10;;;1.27;;
85312;SDS011;75717;50.496;7.560;2024-02-23T07:10:26;3.40;;;1.42;;
85312;SDS011;75717;50.496;7.560;2024-02-23T07:12:52;6.87;;;1.20;;
85312;SDS011;75717;50.496;7.560;2024-02-23T07:15:21;5.30;;;2.13;;
85312;SDS011;75717;50.496;7.560;2024-02-23T07:17:46;9.05;;;2.60;;
85312;SDS011;75717;50.496;7.560;2024-02-23T07:20:12;3.90;;;1.40;;
85312;SDS011;75717;50.496;7.560;2024-02-23T07:22:38;4.03;;;1.25;;
85312;SDS011;75717;50.496;7.560;2024-02-23T07:25:04;6.73;;;1.30;;
85312;SDS011;75717;50.496;7.560;2024-02-23T07:27:30;4.57;;;1.13;;
85312;SDS011;75717;50.496;7.560;2024-02-23T07:29:56;5.75;;;0.93;;
85312;SDS011;75717;50.496;7.560;2024-02-23T07:32:21;2.05;;;0.88;;
85312;SDS011;75717;50.496;7.560;2024-02-23T07:34:47;7.03;;;1.42;;
85312;SDS011;75717;50.496;7.560;2024-02-23T07:37:13;6.88;;;1.30;;
85312;SDS011;75717;50.496;7.560;2024-02-23T07:39:38;3.85;;;1.10;;
85312;SDS011;75717;50.496;7.560;2024-02-23T07:42:03;3.88;;;0.95;;
85312;SDS011;75717;50.496;7.560;2024-02-23T07:44:31;2.40;;;0.73;;
85312;SDS011;75717;50.496;7.560;2024-02-23T07:46:56;2.88;;;1.05;;
85312;SDS011;75717;50.496;7.560;2024-02-23T07:49:23;6.72;;;1.23;;
85312;SDS011;75717;50.496;7.560;2024-02-23T07:51:49;10.38;;;0.98;;
85312;SDS011;75717;50.496;7.560;2024-02-23T07:54:14;3.13;;;1.00;;
85312;SDS011;75717;50.496;7.560;2024-02-23T07:56:39;4.67;;;1.50;;
85312;SDS011;75717;50.496;7.560;2024-02-23T07:59:05;9.27;;;2.43;;
85312;SDS011;75717;50.496;7.560;2024-02-23T08:01:30;7.97;;;2.17;;
85312;SDS011;75717;50.496;7.560;2024-02-23T08:03:55;5.27;;;1.20;;
85312;SDS011;75717;50.496;7.560;2024-02-23T08:06:21;3.25;;;0.77;;
85312;SDS011;75717;50.496;7.560;2024-02-23T08:08:47;3.80;;;1.20;;
85312;SDS011;75717;50.496;7.560;2024-02-23T08:11:12;5.78;;;1.13;;
85312;SDS011;75717;50.496;7.560;2024-02-23T08:13:39;5.03;;;1.20;;
85312;SDS011;75717;50.496;7.560;2024-02-23T08:16:04;2.90;;;1.02;;
85312;SDS011;75717;50.496;7.560;2024-02-23T08:18:30;4.40;;;1.10;;
85312;SDS011;75717;50.496;7.560;2024-02-23T08:20:56;4.80;;;1.45;;
85312;SDS011;75717;50.496;7.560;2024-02-23T08:23:21;3.30;;;1.23;;
85312;SDS011;75717;50.496;7.560;2024-02-23T08:25:47;4.47;;;1.20;;
85312;SDS011;75717;50.496;7.560;2024-02-23T08:28:13;8.57;;;1.13;;
85312;SDS011;75717;50.496;7.560;2024-02-23T08:30:38;2.80;;;0.90;;
85312;SDS011;75717;50.496;7.560;2024-02-23T08:33:03;2.67;;;1.00;;
85312;SDS011;75717;50.496;7.560;2024-02-23T08:35:30;4.90;;;1.20;;
85312;SDS011;75717;50.496;7.560;2024-02-23T08:37:55;3.20;;;1.25;;
85312;SDS011;75717;50.496;7.560;2024-02-23T08:40:21;4.77;;;1.20;;
85312;SDS011;75717;50.496;7.560;2024-02-23T08:42:46;3.33;;;1.03;;
85312;SDS011;75717;50.496;7.560;2024-02-23T08:45:12;3.97;;;1.00;;
85312;SDS011;75717;50.496;7.560;2024-02-23T08:47:38;5.07;;;1.05;;
85312;SDS011;75717;50.496;7.560;2024-02-23T08:50:04;4.88;;;1.10;;
85312;SDS011;75717;50.496;7.560;2024-02-23T08:52:30;6.28;;;1.13;;
85312;SDS011;75717;50.496;7.560;2024-02-23T08:54:55;6.23;;;0.97;;
85312;SDS011;75717;50.496;7.560;2024-02-23T08:57:21;1.33;;;0.70;;
85312;SDS011;75717;50.496;7.560;2024-02-23T08:59:48;5.88;;;1.13;;
85312;SDS011;75717;50.496;7.560;2024-02-23T09:02:14;7.82;;;1.05;;
85312;SDS011;75717;50.496;7.560;2024-02-23T09:04:39;5.10;;;1.30;;
85312;SDS011;75717;50.496;7.560;2024-02-23T09:07:07;5.30;;;0.90;;
85312;SDS011;75717;50.496;7.560;2024-02-23T09:09:32;4.40;;;0.75;;
85312;SDS011;75717;50.496;7.560;2024-02-23T09:11:58;3.40;;;0.75;;
85312;SDS011;75717;50.496;7.560;2024-02-23T09:14:29;4.00;;;1.10;;
85312;SDS011;75717;50.496;7.560;2024-02-23T09:16:54;3.70;;;0.70;;
85312;SDS011;75717;50.496;7.560;2024-02-23T09:19:20;5.15;;;1.23;;
85312;SDS011;75717;50.496;7.560;2024-02-23T09:21:45;4.80;;;0.85;;
85312;SDS011;75717;50.496;7.560;2024-02-23T09:24:11;5.72;;;1.77;;
85312;SDS011;75717;50.496;7.560;2024-02-23T09:26:36;3.92;;;1.02;;
85312;SDS011;75717;50.496;7.560;2024-02-23T09:29:01;3.53;;;0.97;;
85312;SDS011;75717;50.496;7.560;2024-02-23T09:31:27;5.22;;;1.08;;
85312;SDS011;75717;50.496;7.560;2024-02-23T09:33:56;2.83;;;0.95;;
85312;SDS011;75717;50.496;7.560;2024-02-23T09:36:21;5.03;;;0.98;;
85312;SDS011;75717;50.496;7.560;2024-02-23T09:38:47;7.60;;;1.33;;
85312;SDS011;75717;50.496;7.560;2024-02-23T09:41:22;4.40;;;1.17;;
85312;SDS011;75717;50.496;7.560;2024-02-23T09:43:48;6.93;;;1.25;;
85312;SDS011;75717;50.496;7.560;2024-02-23T09:46:15;6.78;;;0.90;;
85312;SDS011;75717;50.496;7.560;2024-02-23T09:48:43;6.55;;;0.98;;
85312;SDS011;75717;50.496;7.560;2024-02-23T09:51:13;7.78;;;1.40;;
85312;SDS011;75717;50.496;7.560;2024-02-23T09:53:40;5.55;;;1.30;;
85312;SDS011;75717;50.496;7.560;2024-02-23T09:56:06;6.80;;;1.45;;
85312;SDS011;75717;50.496;7.560;2024-02-23T09:58:33;4.55;;;1.52;;
85312;SDS011;75717;50.496;7.560;2024-02-23T10:00:59;3.17;;;0.93;;
85312;SDS011;75717;50.496;7.560;2024-02-23T10:03:27;3.92;;;1.20;;
85312;SDS011;75717;50.496;7.560;2024-02-23T10:05:55;5.75;;;0.88;;
85312;SDS011;75717;50.496;7.560;2024-02-23T10:08:21;8.07;;;1.20;;
85312;SDS011;75717;50.496;7.560;2024-02-23T10:10:46;7.60;;;1.30;;
85312;SDS011;75717;50.496;7.560;2024-02-23T10:13:12;3.88;;;0.93;;
85312;SDS011;75717;50.496;7.560;2024-02-23T10:15:43;2.30;;;0.82;;
85312;SDS011;75717;50.496;7.560;2024-02-23T10:18:08;5.57;;;1.07;;
85312;SDS011;75717;50.496;7.560;2024-02-23T10:20:33;6.03;;;1.50;;
85312;SDS011;75717;50.496;7.560;2024-02-23T10:22:59;8.68;;;1.20;;
85312;SDS011;75717;50.496;7.560;2024-02-23T10:25:25;5.80;;;1.20;;
85312;SDS011;75717;50.496;7.560;2024-02-23T10:27:50;6.05;;;1.00;;
85312;SDS011;75717;50.496;7.560;2024-02-23T10:30:16;4.73;;;1.20;;
85312;SDS011;75717;50.496;7.560;2024-02-23T10:32:41;8.80;;;1.65;;
85312;SDS011;75717;50.496;7.560;2024-02-23T10:35:11;11.18;;;1.77;;
85312;SDS011;75717;50.496;7.560;2024-02-23T10:37:39;8.73;;;0.80;;
85312;SDS011;75717;50.496;7.560;2024-02-23T10:40:07;6.93;;;1.63;;
85312;SDS011;75717;50.496;7.560;2024-02-23T10:42:34;5.22;;;0.95;;
85312;SDS011;75717;50.496;7.560;2024-02-23T10:45:02;3.78;;;0.80;;
85312;SDS011;75717;50.496;7.560;2024-02-23T10:47:29;5.93;;;1.30;;
85312;SDS011;75717;50.496;7.560;2024-02-23T10:49:55;3.35;;;1.20;;
85312;SDS011;75717;50.496;7.560;2024-02-23T10:52:22;6.18;;;1.30;;
85312;SDS011;75717;50.496;7.560;2024-02-23T10:54:48;3.50;;;0.98;;
85312;SDS011;75717;50.496;7.560;2024-02-23T10:57:16;9.07;;;3.00;;
85312;SDS011;75717;50.496;7.560;2024-02-23T10:59:44;16.75;;;2.42;;
85312;SDS011;75717;50.496;7.560;2024-02-23T11:02:13;4.10;;;1.10;;
85312;SDS011;75717;50.496;7.560;2024-02-23T11:04:42;4.15;;;1.20;;
85312;SDS011;75717;50.496;7.560;2024-02-23T11:07:15;3.40;;;0.82;;
85312;SDS011;75717;50.496;7.560;2024-02-23T11:09:48;4.97;;;1.50;;
85312;SDS011;75717;50.496;7.560;2024-02-23T11:12:21;9.95;;;1.80;;
85312;SDS011;75717;50.496;7.560;2024-02-23T11:14:48;7.88;;;1.20;;
85312;SDS011;75717;50.496;7.560;2024-02-23T11:17:17;5.55;;;1.00;;
85312;SDS011;75717;50.496;7.560;2024-02-23T11:19:45;4.70;;;1.10;;
85312;SDS011;75717;50.496;7.560;2024-02-23T11:22:11;4.78;;;0.70;;
85312;SDS011;75717;50.496;7.560;2024-02-23T11:24:41;5.53;;;1.10;;
85312;SDS011;75717;50.496;7.560;2024-02-23T11:27:12;9.10;;;1.23;;
85312;SDS011;75717;50.496;7.560;2024-02-23T11:29:39;4.65;;;1.15;;
85312;SDS011;75717;50.496;7.560;2024-02-23T11:32:12;2.15;;;0.55;;
85312;SDS011;75717;50.496;7.560;2024-02-23T11:34:38;2.63;;;1.13;;
85312;SDS011;75717;50.496;7.560;2024-02-23T11:37:10;4.80;;;1.30;;
85312;SDS011;75717;50.496;7.560;2024-02-23T11:39:39;13.85;;;3.90;;
85312;SDS011;75717;50.496;7.560;2024-02-23T11:42:05;13.20;;;3.08;;
85312;SDS011;75717;50.496;7.560;2024-02-23T11:44:31;6.50;;;1.52;;
85312;SDS011;75717;50.496;7.560;2024-02-23T11:46:56;2.50;;;0.80;;
85312;SDS011;75717;50.496;7.560;2024-02-23T11:49:27;5.70;;;1.02;;
85312;SDS011;75717;50.496;7.560;2024-02-23T11:51:55;7.20;;;1.33;;
85312;SDS011;75717;50.496;7.560;2024-02-23T11:54:21;6.97;;;1.92;;
85312;SDS011;75717;50.496;7.560;2024-02-23T11:56:47;4.43;;;0.82;;
85312;SDS011;75717;50.496;7.560;2024-02-23T11:59:14;10.73;;;1.73;;
85312;SDS011;75717;50.496;7.560;2024-02-23T12:01:40;5.38;;;1.35;;
85312;SDS011;75717;50.496;7.560;2024-02-23T12:04:05;10.17;;;1.30;;
85312;SDS011;75717;50.496;7.560;2024-02-23T12:06:30;8.93;;;1.97;;
85312;SDS011;75717;50.496;7.560;2024-02-23T12:08:57;8.23;;;1.95;;
85312;SDS011;75717;50.496;7.560;2024-02-23T12:11:23;5.35;;;1.27;;
85312;SDS011;75717;50.496;7.560;2024-02-23T12:13:48;8.70;;;2.05;;
85312;SDS011;75717;50.496;7.560;2024-02-23T12:16:14;3.83;;;1.15;;
85312;SDS011;75717;50.496;7.560;2024-02-23T12:18:39;5.18;;;1.48;;
85312;SDS011;75717;50.496;7.560;2024-02-23T12:21:05;7.00;;;1.47;;
85312;SDS011;75717;50.496;7.560;2024-02-23T12:24:04;9.35;;;1.65;;
85312;SDS011;75717;50.496;7.560;2024-02-23T12:26:22;6.45;;;1.33;;
85312;SDS011;75717;50.496;7.560;2024-02-23T12:28:48;7.37;;;0.77;;
85312;SDS011;75717;50.496;7.560;2024-02-23T12:31:13;5.85;;;1.15;;
85312;SDS011;75717;50.496;7.560;2024-02-23T12:33:39;5.60;;;1.38;;
85312;SDS011;75717;50.496;7.560;2024-02-23T12:36:05;8.80;;;1.10;;
85312;SDS011;75717;50.496;7.560;2024-02-23T12:38:31;3.10;;;0.93;;
85312;SDS011;75717;50.496;7.560;2024-02-23T12:40:57;5.75;;;1.17;;
85312;SDS011;75717;50.496;7.560;2024-02-23T12:43:23;4.95;;;1.23;;
85312;SDS011;75717;50.496;7.560;2024-02-23T12:45:56;4.75;;;1.20;;
85312;SDS011;75717;50.496;7.560;2024-02-23T12:48:22;7.07;;;0.95;;
85312;SDS011;75717;50.496;7.560;2024-02-23T12:50:48;7.00;;;1.20;;
85312;SDS011;75717;50.496;7.560;2024-02-23T12:53:30;3.72;;;1.13;;
85312;SDS011;75717;50.496;7.560;2024-02-23T12:56:06;0.95;;;0.60;;
85312;SDS011;75717;50.496;7.560;2024-02-23T12:58:33;1.42;;;0.88;;
85312;SDS011;75717;50.496;7.560;2024-02-23T13:00:59;7.15;;;1.30;;
85312;SDS011;75717;50.496;7.560;2024-02-23T13:03:25;4.35;;;0.80;;
85312;SDS011;75717;50.496;7.560;2024-02-23T13:05:51;3.85;;;0.90;;
85312;SDS011;75717;50.496;7.560;2024-02-23T13:08:17;4.22;;;1.00;;
85312;SDS011;75717;50.496;7.560;2024-02-23T13:10:43;3.85;;;1.30;;
85312;SDS011;75717;50.496;7.560;2024-02-23T13:13:08;8.07;;;1.80;;
85312;SDS011;75717;50.496;7.560;2024-02-23T13:15:34;6.57;;;1.52;;
85312;SDS011;75717;50.496;7.560;2024-02-23T13:17:59;5.95;;;1.42;;
85312;SDS011;75717;50.496;7.560;2024-02-23T13:20:24;7.75;;;1.52;;
85312;SDS011;75717;50.496;7.560;2024-02-23T13:22:50;9.95;;;1.80;;
85312;SDS011;75717;50.496;7.560;2024-02-23T13:25:16;7.53;;;1.73;;
85312;SDS011;75717;50.496;7.560;2024-02-23T13:27:41;6.03;;;2.60;;
85312;SDS011;75717;50.496;7.560;2024-02-23T13:30:06;6.93;;;1.23;;
85312;SDS011;75717;50.496;7.560;2024-02-23T13:32:32;4.10;;;1.15;;
85312;SDS011;75717;50.496;7.560;2024-02-23T13:34:57;6.25;;;1.67;;
85312;SDS011;75717;50.496;7.560;2024-02-23T13:37:23;3.83;;;1.50;;
85312;SDS011;75717;50.496;7.560;2024-02-23T13:39:48;4.47;;;1.00;;
85312;SDS011;75717;50.496;7.560;2024-02-23T13:42:13;4.38;;;0.90;;
85312;SDS011;75717;50.496;7.560;2024-02-23T13:44:39;6.57;;;1.10;;
85312;SDS011;75717;50.496;7.560;2024-02-23T13:47:04;4.07;;;1.45;;
85312;SDS011;75717;50.496;7.560;2024-02-23T13:49:30;4.95;;;1.50;;
85312;SDS011;75717;50.496;7.560;2024-02-23T13:51:55;8.37;;;1.70;;
85312;SDS011;75717;50.496;7.560;2024-02-23T13:54:20;2.10;;;0.93;;
85312;SDS011;75717;50.496;7.560;2024-02-23T13:56:46;5.18;;;1.35;;
85312;SDS011;75717;50.496;7.560;2024-02-23T13:59:12;5.55;;;1.30;;
85312;SDS011;75717;50.496;7.560;2024-02-23T14:01:37;6.40;;;1.35;;
85312;SDS011;75717;50.496;7.560;2024-02-23T14:04:05;7.03;;;1.37;;
85312;SDS011;75717;50.496;7.560;2024-02-23T14:06:31;6.47;;;1.00;;
85312;SDS011;75717;50.496;7.560;2024-02-23T14:08:56;4.50;;;0.80;;
85312;SDS011;75717;50.496;7.560;2024-02-23T14:11:22;2.50;;;0.98;;
85312;SDS011;75717;50.496;7.560;2024-02-23T14:13:48;3.23;;;0.63;;
85312;SDS011;75717;50.496;7.560;2024-02-23T14:16:13;2.08;;;0.70;;
85312;SDS011;75717;50.496;7.560;2024-02-23T14:18:38;3.28;;;0.70;;
85312;SDS011;75717;50.496;7.560;2024-02-23T14:21:07;3.20;;;0.90;;
85312;SDS011;75717;50.496;7.560;2024-02-23T14:23:32;4.90;;;1.10;;
85312;SDS011;75717;50.496;7.560;2024-02-23T14:25:58;2.22;;;0.70;;
85312;SDS011;75717;50.496;7.560;2024-02-23T14:28:24;4.50;;;1.20;;
85312;SDS011;75717;50.496;7.560;2024-02-23T14:30:49;3.37;;;0.90;;
85312;SDS011;75717;50.496;7.560;2024-02-23T14:33:14;1.77;;;0.80;;
85312;SDS011;75717;50.496;7.560;2024-02-23T14:35:40;2.17;;;1.00;;
85312;SDS011;75717;50.496;7.560;2024-02-23T14:38:05;5.43;;;0.93;;
85312;SDS011;75717;50.496;7.560;2024-02-23T14:40:30;2.80;;;0.80;;